Terminal Aerodrome Forecast
Issued by NWS

Home | Current Version | Previous Version | Text Only | Print | Product List | Glossary On
Versions: 1 2 3 4 5 6 7 8 9 10 11 12 13 14 15 16 17 18 19 20 21 22 23 24 25 26 27 28
146
FTUS41 KBTV 252342
TAFSLK
TAF
KSLK 252342Z 2600/2624 24010G16KT 3/4SM -SN BR OVC005
      TEMPO 2600/2604 1SM -SN BR OVC004
     FM260400 25014G24KT 1 1/2SM BR OVC005
     FM260800 26015G29KT P6SM OVC020
     FM262200 27012G21KT P6SM BKN140=

USA.gov is the U.S. government's official web portal to all federal, state and local government web resources and services.